sensor_id;sensor_type;location;lat;lon;timestamp;pressure;altitude;pressure_sealevel;temperature;humidity
9325;BME280;4701;51.566;6.776;2022-09-27T05:00:35;99366.09;;;8.51;100.00
9325;BME280;4701;51.566;6.776;2022-09-27T05:02:57;99363.63;;;8.54;100.00
9325;BME280;4701;51.566;6.776;2022-09-27T05:05:25;99367.69;;;8.57;100.00
9325;BME280;4701;51.566;6.776;2022-09-27T05:07:28;99369.88;;;8.55;100.00
9325;BME280;4701;51.566;6.776;2022-09-27T05:09:36;99366.63;;;8.53;100.00
9325;BME280;4701;51.566;6.776;2022-09-27T05:11:38;99367.16;;;8.55;100.00
9325;BME280;4701;51.566;6.776;2022-09-27T05:13:49;99365.53;;;8.54;100.00
9325;BME280;4701;51.566;6.776;2022-09-27T05:15:53;99370.16;;;8.53;100.00
9325;BME280;4701;51.566;6.776;2022-09-27T05:18:11;99378.03;;;8.55;100.00
9325;BME280;4701;51.566;6.776;2022-09-27T05:20:32;99381.63;;;8.50;100.00
9325;BME280;4701;51.566;6.776;2022-09-27T05:22:54;99378.66;;;8.47;100.00
9325;BME280;4701;51.566;6.776;2022-09-27T05:24:56;99373.22;;;8.47;100.00
9325;BME280;4701;51.566;6.776;2022-09-27T05:26:59;99381.09;;;8.48;100.00
9325;BME280;4701;51.566;6.776;2022-09-27T05:29:01;99390.84;;;8.49;100.00
9325;BME280;4701;51.566;6.776;2022-09-27T05:31:05;99388.94;;;8.50;100.00
9325;BME280;4701;51.566;6.776;2022-09-27T05:33:07;99391.66;;;8.50;100.00
9325;BME280;4701;51.566;6.776;2022-09-27T05:35:21;99387.06;;;8.45;100.00
9325;BME280;4701;51.566;6.776;2022-09-27T05:37:23;99389.50;;;8.47;100.00
9325;BME280;4701;51.566;6.776;2022-09-27T05:39:25;99389.50;;;8.47;100.00
9325;BME280;4701;51.566;6.776;2022-09-27T05:41:27;99389.78;;;8.45;100.00
9325;BME280;4701;51.566;6.776;2022-09-27T05:43:29;99386.25;;;8.45;100.00
9325;BME280;4701;51.566;6.776;2022-09-27T05:45:35;99391.97;;;8.43;100.00
9325;BME280;4701;51.566;6.776;2022-09-27T05:47:40;99400.13;;;8.43;100.00
9325;BME280;4701;51.566;6.776;2022-09-27T05:49:42;99403.94;;;8.42;100.00
9325;BME280;4701;51.566;6.776;2022-09-27T05:51:46;99404.72;;;8.43;100.00
9325;BME280;4701;51.566;6.776;2022-09-27T05:53:48;99401.22;;;8.42;100.00
9325;BME280;4701;51.566;6.776;2022-09-27T05:56:00;99398.50;;;8.42;100.00
9325;BME280;4701;51.566;6.776;2022-09-27T05:58:12;99396.84;;;8.46;100.00
9325;BME280;4701;51.566;6.776;2022-09-27T06:00:22;99403.94;;;8.42;100.00
9325;BME280;4701;51.566;6.776;2022-09-27T06:02:25;99400.66;;;8.45;100.00
9325;BME280;4701;51.566;6.776;2022-09-27T06:04:58;99402.53;;;8.50;100.00
9325;BME280;4701;51.566;6.776;2022-09-27T06:07:18;99397.38;;;8.48;100.00
9325;BME280;4701;51.566;6.776;2022-09-27T06:09:21;99408.78;;;8.50;100.00
9325;BME280;4701;51.566;6.776;2022-09-27T06:11:24;99408.19;;;8.53;100.00
9325;BME280;4701;51.566;6.776;2022-09-27T06:13:27;99409.88;;;8.49;100.00
9325;BME280;4701;51.566;6.776;2022-09-27T06:15:30;99412.53;;;8.54;100.00
9325;BME280;4701;51.566;6.776;2022-09-27T06:17:33;99415.50;;;8.53;100.00
9325;BME280;4701;51.566;6.776;2022-09-27T06:19:41;99413.63;;;8.53;100.00
9325;BME280;4701;51.566;6.776;2022-09-27T06:21:44;99409.00;;;8.54;100.00
9325;BME280;4701;51.566;6.776;2022-09-27T06:23:46;99418.22;;;8.53;100.00
9325;BME280;4701;51.566;6.776;2022-09-27T06:25:54;99419.56;;;8.55;100.00
9325;BME280;4701;51.566;6.776;2022-09-27T06:28:04;99432.28;;;8.60;100.00
9325;BME280;4701;51.566;6.776;2022-09-27T06:30:10;99428.25;;;8.57;100.00
9325;BME280;4701;51.566;6.776;2022-09-27T06:32:32;99433.41;;;8.59;100.00
9325;BME280;4701;51.566;6.776;2022-09-27T06:34:50;99427.38;;;8.62;100.00
9325;BME280;4701;51.566;6.776;2022-09-27T06:36:53;99433.63;;;8.62;100.00
9325;BME280;4701;51.566;6.776;2022-09-27T06:38:57;99439.34;;;8.61;100.00
9325;BME280;4701;51.566;6.776;2022-09-27T06:41:07;99442.34;;;8.59;100.00
9325;BME280;4701;51.566;6.776;2022-09-27T06:43:27;99444.28;;;8.59;100.00
9325;BME280;4701;51.566;6.776;2022-09-27T06:45:39;99446.94;;;8.64;100.00
9325;BME280;4701;51.566;6.776;2022-09-27T06:48:02;99444.75;;;8.66;100.00
9325;BME280;4701;51.566;6.776;2022-09-27T06:50:16;99449.59;;;8.69;100.00
9325;BME280;4701;51.566;6.776;2022-09-27T06:52:20;99449.91;;;8.67;100.00
9325;BME280;4701;51.566;6.776;2022-09-27T06:54:22;99446.94;;;8.64;100.00
9325;BME280;4701;51.566;6.776;2022-09-27T06:56:24;99444.16;;;8.69;100.00
9325;BME280;4701;51.566;6.776;2022-09-27T06:58:26;99448.28;;;8.66;100.00
9325;BME280;4701;51.566;6.776;2022-09-27T07:01:10;99455.09;;;8.64;100.00
9325;BME280;4701;51.566;6.776;2022-09-27T07:03:30;99452.91;;;8.66;100.00
9325;BME280;4701;51.566;6.776;2022-09-27T07:05:53;99461.81;;;8.71;100.00
9325;BME280;4701;51.566;6.776;2022-09-27T07:08:23;99451.81;;;8.67;100.00
9325;BME280;4701;51.566;6.776;2022-09-27T07:10:27;99454.22;;;8.68;100.00
9325;BME280;4701;51.566;6.776;2022-09-27T07:12:30;99456.38;;;8.71;100.00
9325;BME280;4701;51.566;6.776;2022-09-27T07:14:32;99461.81;;;8.71;100.00
9325;BME280;4701;51.566;6.776;2022-09-27T07:16:36;99450.13;;;8.71;100.00
9325;BME280;4701;51.566;6.776;2022-09-27T07:18:38;99450.09;;;8.76;100.00
9325;BME280;4701;51.566;6.776;2022-09-27T07:20:41;99454.38;;;8.82;100.00
9325;BME280;4701;51.566;6.776;2022-09-27T07:22:43;99461.19;;;8.80;100.00
9325;BME280;4701;51.566;6.776;2022-09-27T07:24:48;99461.66;;;8.87;100.00
9325;BME280;4701;51.566;6.776;2022-09-27T07:26:50;99473.06;;;8.89;100.00
9325;BME280;4701;51.566;6.776;2022-09-27T07:28:55;99469.78;;;8.92;100.00
9325;BME280;4701;51.566;6.776;2022-09-27T07:30:59;99467.81;;;8.97;100.00
9325;BME280;4701;51.566;6.776;2022-09-27T07:33:04;99465.34;;;9.01;100.00
9325;BME280;4701;51.566;6.776;2022-09-27T07:35:07;99465.34;;;9.01;100.00
9325;BME280;4701;51.566;6.776;2022-09-27T07:37:09;99461.47;;;9.07;100.00
9325;BME280;4701;51.566;6.776;2022-09-27T07:39:13;99469.06;;;9.10;100.00
9325;BME280;4701;51.566;6.776;2022-09-27T07:41:17;99475.59;;;9.09;99.92
9325;BME280;4701;51.566;6.776;2022-09-27T07:43:18;99475.06;;;9.07;98.36
9325;BME280;4701;51.566;6.776;2022-09-27T07:45:21;99472.88;;;9.09;98.26
9325;BME280;4701;51.566;6.776;2022-09-27T07:47:41;99481.31;;;9.07;98.00
9325;BME280;4701;51.566;6.776;2022-09-27T07:49:54;99483.75;;;9.09;97.97
9325;BME280;4701;51.566;6.776;2022-09-27T07:52:14;99493.53;;;9.10;98.35
9325;BME280;4701;51.566;6.776;2022-09-27T07:54:24;99494.91;;;9.07;97.95
9325;BME280;4701;51.566;6.776;2022-09-27T07:56:46;99494.63;;;9.09;97.94
9325;BME280;4701;51.566;6.776;2022-09-27T07:58:51;99498.44;;;9.08;97.04
9325;BME280;4701;51.566;6.776;2022-09-27T08:00:53;99488.31;;;9.14;97.72
9325;BME280;4701;51.566;6.776;2022-09-27T08:02:56;99497.22;;;9.19;97.53
9325;BME280;4701;51.566;6.776;2022-09-27T08:04:58;99504.44;;;9.29;97.55
9325;BME280;4701;51.566;6.776;2022-09-27T08:07:00;99508.97;;;9.38;96.66
9325;BME280;4701;51.566;6.776;2022-09-27T08:09:04;99504.00;;;9.45;96.55
9325;BME280;4701;51.566;6.776;2022-09-27T08:11:11;99501.16;;;9.56;95.99
9325;BME280;4701;51.566;6.776;2022-09-27T08:13:16;99499.50;;;9.60;95.86
9325;BME280;4701;51.566;6.776;2022-09-27T08:15:20;99512.00;;;9.61;94.96
9325;BME280;4701;51.566;6.776;2022-09-27T08:17:22;99509.16;;;9.47;93.65
9325;BME280;4701;51.566;6.776;2022-09-27T08:19:40;99508.88;;;9.48;94.06
9325;BME280;4701;51.566;6.776;2022-09-27T08:22:09;99515.06;;;9.54;94.03
9325;BME280;4701;51.566;6.776;2022-09-27T08:24:24;99513.84;;;9.65;94.00
9325;BME280;4701;51.566;6.776;2022-09-27T08:26:35;99518.13;;;9.71;95.17
9325;BME280;4701;51.566;6.776;2022-09-27T08:28:47;99522.06;;;9.84;94.84
9325;BME280;4701;51.566;6.776;2022-09-27T08:30:57;99520.69;;;9.86;93.70
9325;BME280;4701;51.566;6.776;2022-09-27T08:33:00;99519.50;;;9.93;93.55
9325;BME280;4701;51.566;6.776;2022-09-27T08:35:04;99513.28;;;9.87;93.28
9325;BME280;4701;51.566;6.776;2022-09-27T08:37:07;99523.41;;;9.86;93.65
9325;BME280;4701;51.566;6.776;2022-09-27T08:39:09;99540.22;;;9.88;93.92
9325;BME280;4701;51.566;6.776;2022-09-27T08:41:27;99521.94;;;9.70;90.85
9325;BME280;4701;51.566;6.776;2022-09-27T08:43:40;99533.97;;;9.64;91.27
9325;BME280;4701;51.566;6.776;2022-09-27T08:45:57;99530.53;;;9.59;92.65
9325;BME280;4701;51.566;6.776;2022-09-27T08:48:03;99536.19;;;9.62;93.45
9325;BME280;4701;51.566;6.776;2022-09-27T08:50:16;99544.59;;;9.66;92.84
9325;BME280;4701;51.566;6.776;2022-09-27T08:52:24;99535.06;;;9.63;92.53
9325;BME280;4701;51.566;6.776;2022-09-27T08:54:30;99534.28;;;9.63;93.70
9325;BME280;4701;51.566;6.776;2022-09-27T08:56:33;99530.53;;;9.59;93.78
9325;BME280;4701;51.566;6.776;2022-09-27T08:58:39;99540.88;;;9.57;93.33
9325;BME280;4701;51.566;6.776;2022-09-27T09:00:55;99534.88;;;9.60;95.40
9325;BME280;4701;51.566;6.776;2022-09-27T09:03:02;99538.63;;;9.64;96.57
9325;BME280;4701;51.566;6.776;2022-09-27T09:05:09;99546.84;;;9.59;96.78
9325;BME280;4701;51.566;6.776;2022-09-27T09:07:22;99540.25;;;9.65;97.68
9325;BME280;4701;51.566;6.776;2022-09-27T09:09:34;99540.47;;;9.68;98.23
9325;BME280;4701;51.566;6.776;2022-09-27T09:12:06;99539.66;;;9.68;98.68
9325;BME280;4701;51.566;6.776;2022-09-27T09:14:50;99551.88;;;9.70;98.16
9325;BME280;4701;51.566;6.776;2022-09-27T09:17:06;99553.91;;;9.60;97.48
9325;BME280;4701;51.566;6.776;2022-09-27T09:19:46;99545.84;;;9.49;98.40
9325;BME280;4701;51.566;6.776;2022-09-27T09:22:09;99555.09;;;9.48;99.71
9325;BME280;4701;51.566;6.776;2022-09-27T09:24:24;99557.13;;;9.38;99.35
9325;BME280;4701;51.566;6.776;2022-09-27T09:26:34;99545.66;;;9.41;100.00
9325;BME280;4701;51.566;6.776;2022-09-27T09:28:50;99546.69;;;9.45;100.00
9325;BME280;4701;51.566;6.776;2022-09-27T09:31:05;99548.66;;;9.39;100.00
9325;BME280;4701;51.566;6.776;2022-09-27T09:33:17;99553.28;;;9.39;100.00
9325;BME280;4701;51.566;6.776;2022-09-27T09:35:23;99546.81;;;9.35;100.00
9325;BME280;4701;51.566;6.776;2022-09-27T09:37:34;99545.47;;;9.32;100.00
9325;BME280;4701;51.566;6.776;2022-09-27T09:39:42;99553.88;;;9.36;100.00
9325;BME280;4701;51.566;6.776;2022-09-27T09:42:05;99545.94;;;9.39;100.00
9325;BME280;4701;51.566;6.776;2022-09-27T09:44:15;99546.41;;;9.46;100.00
9325;BME280;4701;51.566;6.776;2022-09-27T09:46:22;99540.97;;;9.46;100.00
9325;BME280;4701;51.566;6.776;2022-09-27T09:48:36;99541.75;;;9.52;100.00
9325;BME280;4701;51.566;6.776;2022-09-27T09:50:45;99552.63;;;9.52;100.00
9325;BME280;4701;51.566;6.776;2022-09-27T09:52:53;99546.06;;;9.53;100.00
9325;BME280;4701;51.566;6.776;2022-09-27T09:55:02;99551.75;;;9.57;100.00
9325;BME280;4701;51.566;6.776;2022-09-27T09:57:13;99551.75;;;9.57;100.00
9325;BME280;4701;51.566;6.776;2022-09-27T09:59:19;99549.59;;;9.54;100.00
9325;BME280;4701;51.566;6.776;2022-09-27T10:01:32;99546.31;;;9.57;100.00
9325;BME280;4701;51.566;6.776;2022-09-27T10:03:37;99549.59;;;9.54;100.00
9325;BME280;4701;51.566;6.776;2022-09-27T10:05:41;99556.09;;;9.58;100.00
9325;BME280;4701;51.566;6.776;2022-09-27T10:07:46;99546.03;;;9.58;100.00
9325;BME280;4701;51.566;6.776;2022-09-27T10:09:51;99544.16;;;9.54;100.00
9325;BME280;4701;51.566;6.776;2022-09-27T10:12:20;99544.16;;;9.54;100.00
9325;BME280;4701;51.566;6.776;2022-09-27T10:14:25;99537.34;;;9.56;100.00
9325;BME280;4701;51.566;6.776;2022-09-27T10:16:32;99534.69;;;9.51;100.00
9325;BME280;4701;51.566;6.776;2022-09-27T10:18:38;99533.88;;;9.51;100.00
9325;BME280;4701;51.566;6.776;2022-09-27T10:20:45;99535.19;;;9.53;100.00
9325;BME280;4701;51.566;6.776;2022-09-27T10:22:52;99526.19;;;9.58;100.00
9325;BME280;4701;51.566;6.776;2022-09-27T10:25:14;99525.59;;;9.61;100.00
9325;BME280;4701;51.566;6.776;2022-09-27T10:27:37;99518.75;;;9.63;100.00
9325;BME280;4701;51.566;6.776;2022-09-27T10:29:42;99518.72;;;9.68;100.00
9325;BME280;4701;51.566;6.776;2022-09-27T10:31:54;99515.41;;;9.71;100.00
9325;BME280;4701;51.566;6.776;2022-09-27T10:34:17;99516.22;;;9.72;100.00
9325;BME280;4701;51.566;6.776;2022-09-27T10:36:27;99513.50;;;9.72;100.00
9325;BME280;4701;51.566;6.776;2022-09-27T10:38:32;99509.09;;;9.76;100.00
9325;BME280;4701;51.566;6.776;2022-09-27T10:40:46;99503.88;;;9.79;100.00
9325;BME280;4701;51.566;6.776;2022-09-27T10:42:48;99511.47;;;9.82;100.00
9325;BME280;4701;51.566;6.776;2022-09-27T10:44:56;99506.00;;;9.82;100.00
9325;BME280;4701;51.566;6.776;2022-09-27T10:47:15;99513.38;;;9.82;100.00
9325;BME280;4701;51.566;6.776;2022-09-27T10:49:46;99506.53;;;9.84;100.00
9325;BME280;4701;51.566;6.776;2022-09-27T10:52:06;99509.03;;;9.81;100.00
9325;BME280;4701;51.566;6.776;2022-09-27T10:54:19;99515.56;;;9.80;100.00
9325;BME280;4701;51.566;6.776;2022-09-27T10:56:26;99510.66;;;9.82;99.26
9325;BME280;4701;51.566;6.776;2022-09-27T10:58:31;99502.94;;;9.89;97.53
9325;BME280;4701;51.566;6.776;2022-09-27T11:00:35;99516.69;;;9.98;95.24
9325;BME280;4701;51.566;6.776;2022-09-27T11:02:39;99520.47;;;10.02;94.69
9325;BME280;4701;51.566;6.776;2022-09-27T11:07:16;99517.66;;;10.07;93.04
9325;BME280;4701;51.566;6.776;2022-09-27T11:09:28;99519.44;;;10.16;93.48
9325;BME280;4701;51.566;6.776;2022-09-27T11:11:32;99513.47;;;10.19;91.23
9325;BME280;4701;51.566;6.776;2022-09-27T11:13:34;99503.06;;;10.21;92.35
9325;BME280;4701;51.566;6.776;2022-09-27T11:15:59;99515.09;;;10.20;90.58
9325;BME280;4701;51.566;6.776;2022-09-27T11:18:11;99518.38;;;10.17;90.66
9325;BME280;4701;51.566;6.776;2022-09-27T11:20:21;99520.00;;;10.18;91.58
9325;BME280;4701;51.566;6.776;2022-09-27T11:25:14;99510.94;;;10.23;93.43
9325;BME280;4701;51.566;6.776;2022-09-27T11:27:29;99517.59;;;10.36;94.85
9325;BME280;4701;51.566;6.776;2022-09-27T11:29:44;99512.56;;;10.24;92.09
9325;BME280;4701;51.566;6.776;2022-09-27T11:32:11;99513.94;;;10.21;92.89
9325;BME280;4701;51.566;6.776;2022-09-27T11:34:32;99514.09;;;10.30;93.61
9325;BME280;4701;51.566;6.776;2022-09-27T11:36:50;99510.41;;;10.21;92.56
9325;BME280;4701;51.566;6.776;2022-09-27T11:39:05;99512.34;;;10.20;94.23
9325;BME280;4701;51.566;6.776;2022-09-27T11:41:28;99510.56;;;10.11;94.24
9325;BME280;4701;51.566;6.776;2022-09-27T11:43:54;99507.50;;;10.12;95.04
9325;BME280;4701;51.566;6.776;2022-09-27T11:46:09;99509.13;;;10.13;96.02
9325;BME280;4701;51.566;6.776;2022-09-27T11:48:27;99512.66;;;10.14;96.05
9325;BME280;4701;51.566;6.776;2022-09-27T11:50:45;99509.66;;;10.15;96.41
9325;BME280;4701;51.566;6.776;2022-09-27T11:53:00;99509.63;;;10.20;96.27
9325;BME280;4701;51.566;6.776;2022-09-27T11:55:20;99505.03;;;10.16;95.06
9325;BME280;4701;51.566;6.776;2022-09-27T11:57:29;99495.75;;;10.17;94.59
9325;BME280;4701;51.566;6.776;2022-09-27T12:02:30;99498.50;;;10.36;93.78
9325;BME280;4701;51.566;6.776;2022-09-27T12:04:56;99496.81;;;10.40;92.47
9325;BME280;4701;51.566;6.776;2022-09-27T12:07:06;99489.53;;;10.35;91.56
9325;BME280;4701;51.566;6.776;2022-09-27T12:09:12;99494.16;;;10.35;92.69
9325;BME280;4701;51.566;6.776;2022-09-27T12:11:21;99494.38;;;10.38;93.12
9325;BME280;4701;51.566;6.776;2022-09-27T12:13:32;99496.59;;;10.36;93.29
9325;BME280;4701;51.566;6.776;2022-09-27T12:15:39;99489.00;;;10.33;93.67
9325;BME280;4701;51.566;6.776;2022-09-27T12:17:46;99494.38;;;10.38;94.24
9325;BME280;4701;51.566;6.776;2022-09-27T12:19:52;99503.28;;;10.44;95.81
9325;BME280;4701;51.566;6.776;2022-09-27T12:22:09;99492.25;;;10.54;94.63
9325;BME280;4701;51.566;6.776;2022-09-27T12:24:19;99494.16;;;10.53;92.86
9325;BME280;4701;51.566;6.776;2022-09-27T12:26:40;99507.56;;;10.50;91.59
9325;BME280;4701;51.566;6.776;2022-09-27T12:28:48;99505.13;;;10.48;89.06
9325;BME280;4701;51.566;6.776;2022-09-27T12:30:55;99496.94;;;10.48;88.82
9325;BME280;4701;51.566;6.776;2022-09-27T12:33:05;99498.38;;;10.46;88.54
9325;BME280;4701;51.566;6.776;2022-09-27T12:35:16;99499.47;;;10.45;88.89
9325;BME280;4701;51.566;6.776;2022-09-27T12:37:23;99503.72;;;10.51;91.45
9325;BME280;4701;51.566;6.776;2022-09-27T12:39:37;99505.41;;;10.66;92.39
9325;BME280;4701;51.566;6.776;2022-09-27T12:42:03;99505.34;;;10.71;91.16
9325;BME280;4701;51.566;6.776;2022-09-27T12:44:17;99499.25;;;10.74;88.09
9325;BME280;4701;51.566;6.776;2022-09-27T12:46:35;99502.88;;;10.88;87.68
9325;BME280;4701;51.566;6.776;2022-09-27T12:48:46;99504.50;;;11.03;86.82
9325;BME280;4701;51.566;6.776;2022-09-27T12:50:54;99507.34;;;11.11;85.15
9325;BME280;4701;51.566;6.776;2022-09-27T12:53:02;99505.31;;;11.03;83.79
9325;BME280;4701;51.566;6.776;2022-09-27T12:55:33;99504.50;;;11.03;83.55
9325;BME280;4701;51.566;6.776;2022-09-27T12:57:47;99518.59;;;10.91;82.20
9325;BME280;4701;51.566;6.776;2022-09-27T13:00:04;99520.09;;;10.83;82.97
9325;BME280;4701;51.566;6.776;2022-09-27T13:02:23;99509.69;;;10.72;82.17
9325;BME280;4701;51.566;6.776;2022-09-27T13:04:49;99506.44;;;10.70;84.25
9325;BME280;4701;51.566;6.776;2022-09-27T13:07:13;99508.78;;;10.57;83.70
9325;BME280;4701;51.566;6.776;2022-09-27T13:09:35;99517.34;;;10.51;84.26
9325;BME280;4701;51.566;6.776;2022-09-27T13:11:46;99508.50;;;10.59;84.73
9325;BME280;4701;51.566;6.776;2022-09-27T13:13:56;99511.13;;;10.64;84.83
9325;BME280;4701;51.566;6.776;2022-09-27T13:16:00;99515.41;;;10.70;84.14
9325;BME280;4701;51.566;6.776;2022-09-27T13:18:29;99503.56;;;10.80;84.86
9325;BME280;4701;51.566;6.776;2022-09-27T13:20:42;99511.09;;;10.83;84.45
9325;BME280;4701;51.566;6.776;2022-09-27T13:25:51;99504.13;;;10.77;82.91
9325;BME280;4701;51.566;6.776;2022-09-27T13:27:58;99514.13;;;10.81;82.97
9325;BME280;4701;51.566;6.776;2022-09-27T13:30:43;99505.00;;;10.72;80.98
9325;BME280;4701;51.566;6.776;2022-09-27T13:33:27;99509.69;;;10.72;83.91
9325;BME280;4701;51.566;6.776;2022-09-27T13:35:34;99508.47;;;10.78;84.84
9325;BME280;4701;51.566;6.776;2022-09-27T13:37:47;99509.63;;;10.90;84.14
9325;BME280;4701;51.566;6.776;2022-09-27T13:40:10;99504.69;;;10.92;82.38
9325;BME280;4701;51.566;6.776;2022-09-27T13:42:46;99499.88;;;11.03;82.82
9325;BME280;4701;51.566;6.776;2022-09-27T13:45:15;99500.28;;;11.10;81.95
9325;BME280;4701;51.566;6.776;2022-09-27T13:47:28;99488.91;;;11.22;81.27
9325;BME280;4701;51.566;6.776;2022-09-27T13:49:39;99481.59;;;11.17;80.85
9325;BME280;4701;51.566;6.776;2022-09-27T13:51:46;99487.41;;;11.29;81.04
9325;BME280;4701;51.566;6.776;2022-09-27T13:53:58;99484.03;;;11.32;79.79
9325;BME280;4701;51.566;6.776;2022-09-27T13:56:00;99485.06;;;11.36;77.97
9325;BME280;4701;51.566;6.776;2022-09-27T13:58:21;99480.53;;;11.46;78.31
9325;BME280;4701;51.566;6.776;2022-09-27T14:00:32;99482.25;;;11.55;79.03
9325;BME280;4701;51.566;6.776;2022-09-27T14:02:50;99484.88;;;11.60;76.63
9325;BME280;4701;51.566;6.776;2022-09-27T14:04:55;99487.31;;;11.48;76.72
9325;BME280;4701;51.566;6.776;2022-09-27T14:07:00;99488.50;;;11.28;75.29
9325;BME280;4701;51.566;6.776;2022-09-27T14:09:05;99495.88;;;11.28;77.93
9325;BME280;4701;51.566;6.776;2022-09-27T14:11:12;99495.94;;;11.23;78.79
9325;BME280;4701;51.566;6.776;2022-09-27T14:13:19;99502.72;;;11.12;76.18
9325;BME280;4701;51.566;6.776;2022-09-27T14:15:31;99502.38;;;10.99;76.63
9325;BME280;4701;51.566;6.776;2022-09-27T14:17:41;99494.28;;;10.94;77.01
9325;BME280;4701;51.566;6.776;2022-09-27T14:19:46;99488.44;;;11.01;77.42
9325;BME280;4701;51.566;6.776;2022-09-27T14:22:10;99495.94;;;11.09;76.81
9325;BME280;4701;51.566;6.776;2022-09-27T14:24:30;99489.50;;;11.19;74.74
9325;BME280;4701;51.566;6.776;2022-09-27T14:26:39;99495.75;;;11.19;72.70
9325;BME280;4701;51.566;6.776;2022-09-27T14:28:42;99492.13;;;11.24;73.52
9325;BME280;4701;51.566;6.776;2022-09-27T14:31:05;99484.03;;;11.32;73.72
9325;BME280;4701;51.566;6.776;2022-09-27T14:33:30;99489.59;;;11.41;73.85
9325;BME280;4701;51.566;6.776;2022-09-27T14:35:46;99480.59;;;11.41;73.23
9325;BME280;4701;51.566;6.776;2022-09-27T14:38:09;99487.78;;;11.36;73.47
9325;BME280;4701;51.566;6.776;2022-09-27T14:40:19;99495.34;;;11.26;72.74
9325;BME280;4701;51.566;6.776;2022-09-27T14:42:23;99483.94;;;11.24;73.70
9325;BME280;4701;51.566;6.776;2022-09-27T14:44:26;99493.03;;;11.19;74.17
9325;BME280;4701;51.566;6.776;2022-09-27T14:46:29;99492.00;;;11.15;73.27
9325;BME280;4701;51.566;6.776;2022-09-27T14:48:34;99496.03;;;11.04;73.53
9325;BME280;4701;51.566;6.776;2022-09-27T14:50:36;99489.44;;;10.91;74.40
9325;BME280;4701;51.566;6.776;2022-09-27T14:52:38;99503.00;;;10.96;75.41
9325;BME280;4701;51.566;6.776;2022-09-27T14:54:40;99498.84;;;10.99;75.21
9325;BME280;4701;51.566;6.776;2022-09-27T14:56:44;99497.22;;;10.98;75.13
9325;BME280;4701;51.566;6.776;2022-09-27T14:58:46;99495.75;;;11.06;76.01
9325;BME280;4701;51.566;6.776;2022-09-27T15:00:48;99504.53;;;11.16;75.38
9325;BME280;4701;51.566;6.776;2022-09-27T15:02:52;99499.81;;;11.22;74.63
9325;BME280;4701;51.566;6.776;2022-09-27T15:04:56;99503.13;;;11.32;74.63
9325;BME280;4701;51.566;6.776;2022-09-27T15:06:59;99499.81;;;11.35;72.80
9325;BME280;4701;51.566;6.776;2022-09-27T15:09:02;99506.59;;;11.38;71.26
9325;BME280;4701;51.566;6.776;2022-09-27T15:11:06;99504.69;;;11.38;70.50
9325;BME280;4701;51.566;6.776;2022-09-27T15:13:13;99501.13;;;11.38;69.70
9325;BME280;4701;51.566;6.776;2022-09-27T15:15:21;99507.41;;;11.38;70.36
9325;BME280;4701;51.566;6.776;2022-09-27T15:17:24;99508.13;;;11.44;69.98
9325;BME280;4701;51.566;6.776;2022-09-27T15:19:28;99501.34;;;11.42;70.22
9325;BME280;4701;51.566;6.776;2022-09-27T15:21:32;99503.13;;;11.32;70.72
9325;BME280;4701;51.566;6.776;2022-09-27T15:23:36;99509.00;;;11.26;72.45
9325;BME280;4701;51.566;6.776;2022-09-27T15:25:42;99503.94;;;11.19;73.22
9325;BME280;4701;51.566;6.776;2022-09-27T15:27:50;99502.91;;;11.15;74.10
9325;BME280;4701;51.566;6.776;2022-09-27T15:29:54;99506.78;;;11.14;75.28
9325;BME280;4701;51.566;6.776;2022-09-27T15:31:58;99500.00;;;11.12;75.94
9325;BME280;4701;51.566;6.776;2022-09-27T15:34:03;99497.34;;;11.07;74.95
9325;BME280;4701;51.566;6.776;2022-09-27T15:36:08;99497.03;;;11.08;75.31
9325;BME280;4701;51.566;6.776;2022-09-27T15:38:25;99505.72;;;10.96;74.24
9325;BME280;4701;51.566;6.776;2022-09-27T15:43:17;99499.56;;;11.05;75.31
9325;BME280;4701;51.566;6.776;2022-09-27T15:45:27;99498.53;;;11.00;75.82
9325;BME280;4701;51.566;6.776;2022-09-27T15:47:47;99495.75;;;11.06;75.94
9325;BME280;4701;51.566;6.776;2022-09-27T15:49:50;99505.44;;;11.12;76.36
9325;BME280;4701;51.566;6.776;2022-09-27T15:51:53;99502.63;;;11.17;76.72
9325;BME280;4701;51.566;6.776;2022-09-27T15:53:57;99506.38;;;11.21;77.00
9325;BME280;4701;51.566;6.776;2022-09-27T15:55:59;99491.13;;;11.20;76.45
9325;BME280;4701;51.566;6.776;2022-09-27T15:58:02;99494.66;;;11.20;77.65
9325;BME280;4701;51.566;6.776;2022-09-27T16:00:12;99499.00;;;11.21;77.35
9325;BME280;4701;51.566;6.776;2022-09-27T16:02:16;99500.41;;;11.19;78.01
9325;BME280;4701;51.566;6.776;2022-09-27T16:04:18;99495.25;;;11.17;78.55
9325;BME280;4701;51.566;6.776;2022-09-27T16:06:23;99496.66;;;11.15;77.64
9325;BME280;4701;51.566;6.776;2022-09-27T16:08:27;99490.19;;;11.11;78.70
9325;BME280;4701;51.566;6.776;2022-09-27T16:10:35;99491.88;;;11.07;78.81
9325;BME280;4701;51.566;6.776;2022-09-27T16:12:38;99497.03;;;11.08;79.63
9325;BME280;4701;51.566;6.776;2022-09-27T16:14:40;99493.09;;;11.00;79.33
9325;BME280;4701;51.566;6.776;2022-09-27T16:16:42;99488.75;;;10.99;79.67
9325;BME280;4701;51.566;6.776;2022-09-27T16:18:45;99479.56;;;10.95;79.52
9325;BME280;4701;51.566;6.776;2022-09-27T16:20:47;99494.59;;;10.93;79.98
9325;BME280;4701;51.566;6.776;2022-09-27T16:22:49;99490.81;;;10.89;80.60
9325;BME280;4701;51.566;6.776;2022-09-27T16:24:51;99493.66;;;10.84;81.01
9325;BME280;4701;51.566;6.776;2022-09-27T16:26:55;99485.94;;;10.72;78.95
9325;BME280;4701;51.566;6.776;2022-09-27T16:28:56;99494.19;;;10.67;78.38
9325;BME280;4701;51.566;6.776;2022-09-27T16:31:05;99492.69;;;10.61;77.94
9325;BME280;4701;51.566;6.776;2022-09-27T16:33:09;99496.56;;;10.55;76.56
9325;BME280;4701;51.566;6.776;2022-09-27T16:35:12;99496.81;;;10.40;77.06
9325;BME280;4701;51.566;6.776;2022-09-27T16:37:15;99495.03;;;10.30;78.19
9325;BME280;4701;51.566;6.776;2022-09-27T16:39:17;99494.06;;;10.21;78.13
9325;BME280;4701;51.566;6.776;2022-09-27T16:41:20;99491.97;;;10.18;78.84
9325;BME280;4701;51.566;6.776;2022-09-27T16:43:26;99483.19;;;10.21;79.13
9325;BME280;4701;51.566;6.776;2022-09-27T16:45:28;99485.13;;;10.20;79.44
9325;BME280;4701;51.566;6.776;2022-09-27T16:47:33;99487.03;;;10.20;79.15
9325;BME280;4701;51.566;6.776;2022-09-27T16:49:34;99480.19;;;10.22;79.55
9325;BME280;4701;51.566;6.776;2022-09-27T16:51:54;99484.34;;;10.15;80.16
9325;BME280;4701;51.566;6.776;2022-09-27T16:54:02;99485.81;;;10.07;80.77
9325;BME280;4701;51.566;6.776;2022-09-27T16:56:05;99477.41;;;10.04;81.19
9325;BME280;4701;51.566;6.776;2022-09-27T16:58:06;99481.84;;;10.00;81.88
9325;BME280;4701;51.566;6.776;2022-09-27T17:00:11;99482.66;;;10.00;82.79
9325;BME280;4701;51.566;6.776;2022-09-27T17:02:13;99479.94;;;10.00;82.73
9325;BME280;4701;51.566;6.776;2022-09-27T17:04:15;99467.34;;;10.04;83.58